createdAt,value
2018-03-24T00:01:07.588Z,7.50
2018-03-24T00:03:39.529Z,7.40
2018-03-24T00:06:11.088Z,7.40
2018-03-24T00:08:44.001Z,7.40
2018-03-24T00:11:15.822Z,7.50
2018-03-24T00:13:46.863Z,7.40
2018-03-24T00:16:17.691Z,7.40
2018-03-24T00:18:48.573Z,7.40
2018-03-24T00:21:18.995Z,7.50
2018-03-24T00:23:50.602Z,7.50
2018-03-24T00:26:22.457Z,7.50
2018-03-24T00:28:57.583Z,7.50
2018-03-24T00:31:35.719Z,7.40
2018-03-24T00:34:07.478Z,7.40
2018-03-24T00:36:42.974Z,7.40
2018-03-24T00:39:14.104Z,7.30
2018-03-24T00:41:44.746Z,7.20
2018-03-24T00:44:15.866Z,7.10
2018-03-24T00:46:46.968Z,7.00
2018-03-24T00:49:18.369Z,7.00
2018-03-24T00:51:49.659Z,6.90
2018-03-24T00:54:22.176Z,6.90
2018-03-24T00:56:53.089Z,7.00
2018-03-24T00:59:23.927Z,7.00
2018-03-24T01:01:55.054Z,7.00
2018-03-24T01:04:28.594Z,7.10
2018-03-24T01:16:18.733Z,7.20
2018-03-24T01:18:54.871Z,7.10
2018-03-24T01:21:28.681Z,6.50
2018-03-24T01:23:59.706Z,6.50
2018-03-24T01:26:31.730Z,6.40
2018-03-24T01:29:03.173Z,6.10
2018-03-24T01:31:35.293Z,6.10
2018-03-24T01:34:08.630Z,6.00
2018-03-24T01:36:48.728Z,5.90
2018-03-24T01:39:28.172Z,5.90
2018-03-24T01:41:59.727Z,5.90
2018-03-24T01:44:36.039Z,5.70
2018-03-24T01:47:13.031Z,5.60
2018-03-24T01:49:43.963Z,5.50
2018-03-24T01:52:14.842Z,5.40
2018-03-24T01:54:51.902Z,5.40
2018-03-24T01:57:36.126Z,5.30
2018-03-24T02:00:07.491Z,5.10
2018-03-24T02:02:37.769Z,5.10
2018-03-24T02:05:08.016Z,5.10
2018-03-24T02:07:38.105Z,5.10
2018-03-24T02:10:08.098Z,5.00
2018-03-24T02:12:38.344Z,4.90
2018-03-24T02:15:08.988Z,4.90
2018-03-24T02:17:53.989Z,4.80
2018-03-24T02:20:34.032Z,4.80
2018-03-24T02:23:04.378Z,4.70
2018-03-24T02:25:36.236Z,4.70
2018-03-24T02:28:06.440Z,4.70
2018-03-24T02:30:38.014Z,4.60
2018-03-24T02:33:08.383Z,4.50
2018-03-24T02:35:38.914Z,4.50
2018-03-24T02:38:08.992Z,4.50
2018-03-24T02:40:44.085Z,4.40
2018-03-24T02:43:15.330Z,4.40
2018-03-24T02:45:57.737Z,4.40
2018-03-24T02:48:43.070Z,4.30
2018-03-24T02:51:15.618Z,4.30
2018-03-24T02:53:49.126Z,4.30
2018-03-24T02:56:30.752Z,4.20
2018-03-24T02:59:08.776Z,4.10
2018-03-24T03:01:39.012Z,4.10
2018-03-24T03:04:10.875Z,4.10
2018-03-24T03:06:40.759Z,4.10
2018-03-24T03:09:11.993Z,4.10
2018-03-24T03:11:42.504Z,4.00
2018-03-24T03:14:12.951Z,4.10
2018-03-24T03:16:42.863Z,4.00
2018-03-24T03:19:12.969Z,4.00
2018-03-24T03:21:49.225Z,4.00
2018-03-24T03:24:19.713Z,4.00
2018-03-24T03:26:49.386Z,4.00
2018-03-24T03:29:19.149Z,3.90
2018-03-24T03:31:49.540Z,3.90
2018-03-24T03:34:19.127Z,3.90
2018-03-24T03:36:48.797Z,3.80
2018-03-24T03:39:20.864Z,3.80
2018-03-24T03:41:51.394Z,3.80
2018-03-24T03:44:22.015Z,3.80
2018-03-24T03:46:51.818Z,3.80
2018-03-24T03:49:21.422Z,3.80
2018-03-24T03:51:52.304Z,3.80
2018-03-24T03:54:21.798Z,3.70
2018-03-24T03:56:51.860Z,3.70
2018-03-24T03:59:21.741Z,3.70
2018-03-24T04:01:51.380Z,3.70
2018-03-24T04:04:20.777Z,3.70
2018-03-24T04:06:50.505Z,3.70
2018-03-24T04:09:20.043Z,3.70
2018-03-24T04:11:53.621Z,3.60
2018-03-24T04:14:23.986Z,3.60
2018-03-24T04:16:53.483Z,3.60
2018-03-24T04:19:23.849Z,3.60
2018-03-24T04:21:53.238Z,3.60
2018-03-24T04:24:22.679Z,3.60
2018-03-24T04:26:52.953Z,3.60
2018-03-24T04:29:22.512Z,3.60
2018-03-24T04:31:52.869Z,3.60
2018-03-24T04:34:23.089Z,3.60
2018-03-24T04:36:52.639Z,3.60
2018-03-24T04:39:22.374Z,3.60
2018-03-24T04:41:51.777Z,3.60
2018-03-24T04:44:28.557Z,3.60
2018-03-24T04:46:58.851Z,3.60
2018-03-24T04:49:28.461Z,3.60
2018-03-24T04:51:58.003Z,3.60
2018-03-24T04:54:27.363Z,3.60
2018-03-24T04:56:58.180Z,3.70
2018-03-24T04:59:27.894Z,3.70
2018-03-24T05:01:57.723Z,3.60
2018-03-24T05:04:27.379Z,3.70
2018-03-24T05:06:57.631Z,3.80
2018-03-24T05:09:27.188Z,3.80
2018-03-24T05:11:57.434Z,3.90
2018-03-24T05:14:27.733Z,3.90
2018-03-24T05:16:59.425Z,3.90
2018-03-24T05:19:32.537Z,3.90
2018-03-24T05:22:03.219Z,3.90
2018-03-24T05:24:32.835Z,4.00
2018-03-24T05:27:03.041Z,4.10
2018-03-24T05:29:33.514Z,4.20
2018-03-24T05:32:03.214Z,4.20
2018-03-24T05:34:33.594Z,4.20
2018-03-24T05:37:03.071Z,4.10
2018-03-24T05:39:32.554Z,4.10
2018-03-24T05:42:02.145Z,4.10
2018-03-24T05:44:31.628Z,4.20
2018-03-24T05:47:01.930Z,4.10
2018-03-24T05:49:31.595Z,4.10
2018-03-24T05:55:01.838Z,4.20
2018-03-24T05:57:31.563Z,4.20
2018-03-24T06:00:01.471Z,4.20
2018-03-24T06:02:31.141Z,4.20
2018-03-24T06:05:01.412Z,4.30
2018-03-24T06:07:31.184Z,4.30
2018-03-24T06:10:02.035Z,4.40
2018-03-24T06:12:33.875Z,4.40
2018-03-24T06:15:03.722Z,4.40
2018-03-24T06:17:35.419Z,4.50
2018-03-24T06:20:05.575Z,4.50
2018-03-24T06:22:36.154Z,4.50
2018-03-24T06:25:06.113Z,4.50
2018-03-24T06:27:36.342Z,4.50
2018-03-24T06:30:07.154Z,4.70
2018-03-24T06:32:37.344Z,4.60
2018-03-24T06:35:07.155Z,4.80
2018-03-24T06:37:37.512Z,5.00
2018-03-24T06:40:07.484Z,5.10
2018-03-24T06:42:37.987Z,5.20
2018-03-24T06:45:11.134Z,5.40
2018-03-24T06:47:41.561Z,5.30
2018-03-24T06:50:11.887Z,5.30
2018-03-24T06:52:42.613Z,5.40
2018-03-24T06:55:13.663Z,5.40
2018-03-24T06:57:45.115Z,5.30
2018-03-24T07:00:15.461Z,5.40
2018-03-24T07:02:45.938Z,5.40
2018-03-24T07:05:16.180Z,5.50
2018-03-24T07:07:47.139Z,5.50
2018-03-24T07:10:17.539Z,5.60
2018-03-24T07:12:49.546Z,5.70
2018-03-24T07:15:20.783Z,5.80
2018-03-24T07:17:51.179Z,5.90
2018-03-24T07:20:23.084Z,6.00
2018-03-24T07:22:53.522Z,6.20
2018-03-24T07:25:24.705Z,6.40
2018-03-24T07:27:55.679Z,6.40
2018-03-24T07:30:26.008Z,6.40
2018-03-24T07:32:58.948Z,6.30
2018-03-24T07:35:32.462Z,6.40
2018-03-24T07:38:03.440Z,6.40
2018-03-24T07:40:34.642Z,6.30
2018-03-24T07:43:05.242Z,6.40
2018-03-24T07:45:36.242Z,6.40
2018-03-24T07:48:06.875Z,6.40
2018-03-24T07:50:37.373Z,6.50
2018-03-24T07:53:07.866Z,6.70
2018-03-24T07:55:38.944Z,7.00
2018-03-24T07:58:09.537Z,7.00
2018-03-24T08:00:41.031Z,7.10
2018-03-24T08:03:11.438Z,7.10
2018-03-24T08:05:42.528Z,7.40
2018-03-24T08:08:14.318Z,7.30
2018-03-24T08:10:49.290Z,7.40
2018-03-24T08:13:20.802Z,7.40
2018-03-24T08:15:51.435Z,7.50
2018-03-24T08:18:24.468Z,7.50
2018-03-24T08:20:55.987Z,7.50
2018-03-24T08:23:27.488Z,7.70
2018-03-24T08:25:58.031Z,7.70
2018-03-24T08:28:29.408Z,7.90
2018-03-24T08:31:00.806Z,8.00
2018-03-24T08:33:31.566Z,8.00
2018-03-24T08:36:02.526Z,8.10
2018-03-24T08:38:33.752Z,8.20
2018-03-24T08:41:04.638Z,8.20
2018-03-24T08:43:35.142Z,8.30
2018-03-24T08:46:07.111Z,8.50
2018-03-24T08:48:37.819Z,8.50
2018-03-24T08:51:09.232Z,8.60
2018-03-24T08:53:40.957Z,8.70
2018-03-24T08:56:12.543Z,8.80
2018-03-24T08:58:44.368Z,8.80
2018-03-24T09:01:15.201Z,9.30
2018-03-24T09:03:45.544Z,10.20
2018-03-24T09:06:16.043Z,10.80
2018-03-24T09:08:47.329Z,11.60
2018-03-24T09:11:20.120Z,11.70
2018-03-24T09:13:51.336Z,11.60
2018-03-24T09:16:21.735Z,11.90
2018-03-24T09:18:52.045Z,12.10
2018-03-24T09:21:22.866Z,11.80
2018-03-24T09:23:53.516Z,11.90
2018-03-24T09:26:27.042Z,11.60
2018-03-24T09:28:57.314Z,11.40
2018-03-24T09:31:30.282Z,12.20
2018-03-24T09:34:00.788Z,12.20
2018-03-24T09:36:34.091Z,12.70
2018-03-24T09:39:04.921Z,12.70
2018-03-24T09:41:36.252Z,13.20
2018-03-24T09:44:07.579Z,13.70
2018-03-24T09:46:41.486Z,14.20
2018-03-24T09:49:18.198Z,14.20
2018-03-24T09:51:49.659Z,14.70
2018-03-24T09:54:22.635Z,14.60
2018-03-24T09:56:54.059Z,14.30
2018-03-24T09:59:39.308Z,14.60
2018-03-24T10:02:10.956Z,14.60
2018-03-24T10:04:44.369Z,14.90
2018-03-24T10:07:19.362Z,15.20
2018-03-24T10:09:53.463Z,15.20
2018-03-24T10:12:26.144Z,15.60
2018-03-24T10:14:57.522Z,15.50
2018-03-24T10:17:32.257Z,16.20
2018-03-24T10:20:06.983Z,16.70
2018-03-24T10:22:46.673Z,16.10
2018-03-24T10:25:17.939Z,16.40
2018-03-24T10:27:48.786Z,16.70
2018-03-24T10:30:20.006Z,16.40
2018-03-24T10:32:50.826Z,16.80
2018-03-24T10:35:21.150Z,16.80
2018-03-24T10:37:55.532Z,17.40
2018-03-24T10:40:25.983Z,16.40
2018-03-24T10:43:03.235Z,17.10
2018-03-24T10:45:35.402Z,17.10
2018-03-24T10:48:13.811Z,18.40
2018-03-24T10:50:56.867Z,18.50
2018-03-24T10:53:49.344Z,18.30
2018-03-24T10:56:30.050Z,17.40
2018-03-24T10:59:00.414Z,17.40
2018-03-24T11:01:33.998Z,17.00
2018-03-24T11:04:05.542Z,16.30
2018-03-24T11:06:38.521Z,17.80
2018-03-24T11:09:09.718Z,17.80
2018-03-24T11:11:41.574Z,19.60
2018-03-24T11:14:13.967Z,20.60
2018-03-24T11:16:45.558Z,19.30
2018-03-24T11:19:16.258Z,19.30
2018-03-24T11:21:47.571Z,18.30
2018-03-24T11:24:17.742Z,18.30
2018-03-24T11:26:48.166Z,18.80
2018-03-24T11:29:18.384Z,19.00
2018-03-24T11:31:48.571Z,18.10
2018-03-24T11:34:24.580Z,18.60
2018-03-24T11:36:56.867Z,18.80
2018-03-24T11:39:30.235Z,18.80
2018-03-24T11:42:00.601Z,18.50
2018-03-24T11:44:33.322Z,21.10
2018-03-24T11:47:12.535Z,19.70
2018-03-24T11:49:43.366Z,19.70
2018-03-24T11:52:14.463Z,19.60
2018-03-24T11:54:46.424Z,19.20
2018-03-24T11:57:24.273Z,17.30
2018-03-24T11:59:56.483Z,18.70
2018-03-24T12:02:26.748Z,18.60
2018-03-24T12:04:57.447Z,19.90
2018-03-24T12:07:28.472Z,18.40
2018-03-24T12:09:59.919Z,19.50
2018-03-24T12:12:33.931Z,19.20
2018-03-24T12:15:05.213Z,19.40
2018-03-24T12:17:35.957Z,19.90
2018-03-24T12:20:08.912Z,20.50
2018-03-24T12:22:39.946Z,20.20
2018-03-24T12:25:11.374Z,20.20
2018-03-24T12:27:50.908Z,20.80
2018-03-24T12:30:31.851Z,20.70
2018-03-24T12:33:02.896Z,22.00
2018-03-24T12:35:33.575Z,20.20
2018-03-24T12:38:04.464Z,18.40
2018-03-24T12:40:35.916Z,18.20
2018-03-24T12:43:11.557Z,17.80
2018-03-24T12:45:44.866Z,17.90
2018-03-24T12:48:16.982Z,18.60
2018-03-24T12:50:48.238Z,20.60
2018-03-24T12:53:18.387Z,20.60
2018-03-24T12:55:53.152Z,20.50
2018-03-24T12:58:26.299Z,19.50
2018-03-24T13:01:04.602Z,20.40
2018-03-24T13:03:40.414Z,20.40
2018-03-24T13:06:12.240Z,21.10
2018-03-24T13:08:44.631Z,19.10
2018-03-24T13:11:21.225Z,20.10
2018-03-24T13:13:58.664Z,19.90
2018-03-24T13:16:35.817Z,18.60
2018-03-24T13:19:12.424Z,17.90
2018-03-24T13:21:44.808Z,17.90
2018-03-24T13:24:22.207Z,17.10
2018-03-24T13:27:02.451Z,18.40
2018-03-24T13:29:43.481Z,18.40
2018-03-24T13:32:18.591Z,19.40
2018-03-24T13:34:52.187Z,19.20
2018-03-24T13:37:37.551Z,19.20
2018-03-24T13:40:38.574Z,19.40
2018-03-24T13:43:24.003Z,19.40
2018-03-24T13:46:10.885Z,20.10
2018-03-24T13:48:46.439Z,20.00
2018-03-24T13:51:18.892Z,21.20
2018-03-24T13:53:55.625Z,18.40
2018-03-24T13:56:25.955Z,18.50
2018-03-24T13:58:57.921Z,19.10
2018-03-24T14:01:30.310Z,18.20
2018-03-24T14:06:43.134Z,15.50
2018-03-24T14:09:13.744Z,14.50
2018-03-24T14:11:44.821Z,15.90
2018-03-24T14:14:15.430Z,17.00
2018-03-24T14:16:46.310Z,15.00
2018-03-24T14:19:18.987Z,14.90
2018-03-24T14:21:54.305Z,14.30
2018-03-24T14:24:28.087Z,13.80
2018-03-24T14:27:00.016Z,13.70
2018-03-24T14:29:30.899Z,13.60
2018-03-24T14:32:01.706Z,13.60
2018-03-24T14:34:32.722Z,13.30
2018-03-24T14:37:03.103Z,13.20
2018-03-24T14:39:36.759Z,13.20
2018-03-24T14:42:07.571Z,13.40
2018-03-24T14:44:39.129Z,13.50
2018-03-24T14:47:10.405Z,13.60
2018-03-24T14:49:41.050Z,13.40
2018-03-24T14:52:11.916Z,13.20
2018-03-24T14:54:42.961Z,13.10
2018-03-24T14:57:17.315Z,13.20
2018-03-24T14:59:53.920Z,13.20
2018-03-24T15:02:26.171Z,13.10
2018-03-24T15:05:01.684Z,13.00
2018-03-24T15:07:35.430Z,13.00
2018-03-24T15:10:07.099Z,13.10
2018-03-24T15:12:39.446Z,12.90
2018-03-24T15:15:09.534Z,12.90
2018-03-24T15:17:39.839Z,12.80
2018-03-24T15:20:11.022Z,12.90
2018-03-24T15:22:42.458Z,12.90
2018-03-24T15:25:17.311Z,13.00
2018-03-24T15:27:50.101Z,13.00
2018-03-24T15:30:31.004Z,12.90
2018-03-24T15:33:10.214Z,12.90
2018-03-24T15:35:41.378Z,12.80
2018-03-24T15:38:11.914Z,12.70
2018-03-24T15:40:45.133Z,12.80
2018-03-24T15:43:18.549Z,13.10
2018-03-24T15:45:49.870Z,13.10
2018-03-24T15:48:24.174Z,13.20
2018-03-24T15:50:57.697Z,12.80
2018-03-24T15:53:27.826Z,12.80
2018-03-24T15:55:59.501Z,13.00
2018-03-24T15:58:30.324Z,13.10
2018-03-24T16:01:00.530Z,13.10
2018-03-24T16:03:31.893Z,13.20
2018-03-24T16:06:02.348Z,13.10
2018-03-24T16:08:33.836Z,13.10
2018-03-24T16:11:05.517Z,13.10
2018-03-24T16:13:35.956Z,13.10
2018-03-24T16:16:06.764Z,13.10
2018-03-24T16:18:38.813Z,13.20
2018-03-24T16:21:09.226Z,13.20
2018-03-24T16:23:42.598Z,13.10
2018-03-24T16:26:49.199Z,12.90
2018-03-24T16:29:19.973Z,13.00
2018-03-24T16:31:50.521Z,13.00
2018-03-24T16:34:20.834Z,13.00
2018-03-24T16:36:51.358Z,12.80
2018-03-24T16:39:22.647Z,12.70
2018-03-24T16:41:53.242Z,12.80
2018-03-24T16:44:24.954Z,12.60
2018-03-24T16:47:01.459Z,12.60
2018-03-24T16:50:03.728Z,12.60
2018-03-24T16:52:35.163Z,12.50
2018-03-24T16:55:14.067Z,12.40
2018-03-24T16:57:45.288Z,12.40
2018-03-24T17:00:15.614Z,12.40
2018-03-24T17:02:45.885Z,12.40
2018-03-24T17:05:16.369Z,12.40
2018-03-24T17:07:46.689Z,12.30
2018-03-24T17:10:19.044Z,12.20
2018-03-24T17:12:49.336Z,12.20
2018-03-24T17:15:20.062Z,12.20
2018-03-24T17:17:50.534Z,12.20
2018-03-24T17:20:23.232Z,12.30
2018-03-24T17:22:54.056Z,12.20
2018-03-24T17:25:25.248Z,12.30
2018-03-24T17:27:59.850Z,12.30
2018-03-24T17:30:30.572Z,12.30
2018-03-24T17:33:02.047Z,12.40
2018-03-24T17:35:32.379Z,12.40
2018-03-24T17:38:02.923Z,12.40
2018-03-24T17:40:35.526Z,12.30
2018-03-24T17:43:07.564Z,12.30
2018-03-24T17:45:38.985Z,12.30
2018-03-24T17:48:10.399Z,12.30
2018-03-24T17:50:46.043Z,12.20
2018-03-24T17:53:17.123Z,12.20
2018-03-24T17:55:50.673Z,12.20
2018-03-24T17:58:21.983Z,12.20
2018-03-24T18:00:52.393Z,12.10
2018-03-24T18:03:26.875Z,12.00
2018-03-24T18:06:05.695Z,11.90
2018-03-24T18:08:40.675Z,11.90
2018-03-24T18:11:22.180Z,11.80
2018-03-24T18:13:52.781Z,11.80
2018-03-24T18:16:32.171Z,11.70
2018-03-24T18:19:23.116Z,11.70
2018-03-24T18:22:09.039Z,11.60
2018-03-24T18:24:41.353Z,11.60
2018-03-24T18:27:15.351Z,11.50
2018-03-24T18:29:48.321Z,11.50
2018-03-24T18:32:18.853Z,11.40
2018-03-24T18:34:49.453Z,11.30
2018-03-24T18:37:22.311Z,11.30
2018-03-24T18:39:53.915Z,11.10
2018-03-24T18:42:33.184Z,11.10
2018-03-24T18:45:03.816Z,11.00
2018-03-24T18:47:35.005Z,11.00
2018-03-24T18:50:09.221Z,11.00
2018-03-24T18:52:45.317Z,10.90
2018-03-24T18:55:16.299Z,10.90
2018-03-24T18:57:50.466Z,10.80
2018-03-24T19:00:22.955Z,10.80
2018-03-24T19:02:55.495Z,10.80
2018-03-24T19:05:27.761Z,10.70
2018-03-24T19:08:07.944Z,10.60
2018-03-24T19:10:42.042Z,10.60
2018-03-24T19:13:19.614Z,10.60
2018-03-24T19:16:02.280Z,10.60
2018-03-24T19:18:38.817Z,10.60
2018-03-24T19:21:11.794Z,10.60
2018-03-24T19:23:51.137Z,10.60
2018-03-24T19:26:24.500Z,10.60
2018-03-24T19:29:04.879Z,10.60
2018-03-24T19:31:36.455Z,10.60
2018-03-24T19:34:07.677Z,10.60
2018-03-24T19:36:42.600Z,10.60
2018-03-24T19:39:16.244Z,10.50
2018-03-24T19:41:46.302Z,10.40
2018-03-24T19:44:18.036Z,10.50
2018-03-24T19:46:53.731Z,10.40
2018-03-24T19:49:26.885Z,10.40
2018-03-24T19:51:59.074Z,10.40
2018-03-24T19:54:29.649Z,10.50
2018-03-24T19:57:05.188Z,10.40
2018-03-24T19:59:36.060Z,10.40
2018-03-24T20:02:14.650Z,10.40
2018-03-24T20:04:51.611Z,10.30
2018-03-24T20:07:34.597Z,10.40
2018-03-24T20:10:14.604Z,10.40
2018-03-24T20:12:48.228Z,10.40
2018-03-24T20:15:22.180Z,10.40
2018-03-24T20:18:06.911Z,10.30
2018-03-24T20:20:38.659Z,10.30
2018-03-24T20:26:05.076Z,10.20
2018-03-24T20:28:57.696Z,10.10
2018-03-24T20:31:43.581Z,10.10
2018-03-24T20:34:28.253Z,10.10
2018-03-24T20:37:03.984Z,10.00
2018-03-24T20:39:40.338Z,9.90
2018-03-24T20:42:18.125Z,9.90
2018-03-24T20:44:50.842Z,9.90
2018-03-24T20:47:22.383Z,9.80
2018-03-24T20:49:54.324Z,9.80
2018-03-24T20:52:27.624Z,9.70
2018-03-24T20:55:03.478Z,9.60
2018-03-24T20:57:49.558Z,9.60
2018-03-24T21:00:22.282Z,9.60
2018-03-24T21:02:53.581Z,9.60
2018-03-24T21:05:24.508Z,9.50
2018-03-24T21:07:58.640Z,9.40
2018-03-24T21:10:29.286Z,9.40
2018-03-24T21:13:00.374Z,9.40
2018-03-24T21:15:33.068Z,9.40
2018-03-24T21:18:07.840Z,9.40
2018-03-24T21:20:38.659Z,9.40
2018-03-24T21:23:13.796Z,9.30
2018-03-24T21:25:58.030Z,9.30
2018-03-24T21:28:33.436Z,9.30
2018-03-24T21:31:07.935Z,9.30
2018-03-24T21:33:42.391Z,9.20
2018-03-24T21:36:13.727Z,9.20
2018-03-24T21:38:45.989Z,9.10
2018-03-24T21:41:20.866Z,9.00
2018-03-24T21:43:58.558Z,8.90
2018-03-24T21:46:34.116Z,8.90
2018-03-24T21:49:05.146Z,8.90
2018-03-24T21:51:45.426Z,8.90
2018-03-24T21:54:23.632Z,8.90
2018-03-24T21:56:59.770Z,8.90
2018-03-24T21:59:37.165Z,8.90
2018-03-24T22:02:15.585Z,8.80
2018-03-24T22:04:46.900Z,8.80
2018-03-24T22:07:19.411Z,8.80
2018-03-24T22:09:51.775Z,8.80
2018-03-24T22:12:28.829Z,8.70
2018-03-24T22:15:01.418Z,8.70
2018-03-24T22:17:32.049Z,8.60
2018-03-24T22:20:05.882Z,8.70
2018-03-24T22:22:50.201Z,8.60
2018-03-24T22:25:26.509Z,8.50
2018-03-24T22:27:57.970Z,8.60
2018-03-24T22:30:29.785Z,8.60
2018-03-24T22:33:00.916Z,8.50
2018-03-24T22:35:32.120Z,8.50
2018-03-24T22:38:04.452Z,8.40
2018-03-24T22:40:36.501Z,8.40
2018-03-24T22:43:18.299Z,8.20
2018-03-24T22:45:48.958Z,8.20
2018-03-24T22:48:20.095Z,8.20
2018-03-24T22:50:58.551Z,8.20
2018-03-24T22:53:35.256Z,8.10
2018-03-24T22:56:07.938Z,8.10
2018-03-24T22:58:41.654Z,8.10
2018-03-24T23:01:13.567Z,8.10
2018-03-24T23:03:45.217Z,8.10
2018-03-24T23:06:16.838Z,8.10
2018-03-24T23:08:50.993Z,8.00
2018-03-24T23:11:22.601Z,8.00
2018-03-24T23:13:56.757Z,7.90
2018-03-24T23:16:27.208Z,7.80
2018-03-24T23:19:02.076Z,7.70
2018-03-24T23:21:35.369Z,7.60
2018-03-24T23:24:09.345Z,7.60
2018-03-24T23:26:53.655Z,7.40
2018-03-24T23:29:29.876Z,7.40
2018-03-24T23:34:58.096Z,7.30
